CEB316 RPLL-RPUV
Flight info
| Callsign | CEB316 |
|---|---|
| Flight time | N/A |
| Altitude | 25000 |
| Route | HARBO1 HARBO DCT TIMON W15 RAGAY W15A NGA |
| Aircraft | A20N/M-SDE2E3FGHIRWXY/LB1 |
Departure
| Time | N/A |
|---|---|
| Airport | Ninoy Aquino International Airport (RPLL) |
Arrival
| Time | 2026-05-04 23:06 |
|---|---|
| Airport | Virac Airport (RPUV) |
| Time | Latitude | Longitude | Altitude | Speed | Heading |
|---|---|---|---|---|---|
| 2026-05-04 22:37 | 13.65595 | 122.92804 | 24924 ft | 421 kts | 103° |
| 2026-05-04 22:38 | 13.64961 | 122.95744 | 24926 ft | 422 kts | 103° |
| 2026-05-04 22:38 | 13.64330 | 122.98675 | 24735 ft | 416 kts | 103° |
| 2026-05-04 22:38 | 13.63714 | 123.01534 | 24543 ft | 402 kts | 103° |
| 2026-05-04 22:38 | 13.63119 | 123.04302 | 24369 ft | 389 kts | 103° |
| 2026-05-04 22:39 | 13.62542 | 123.06978 | 24203 ft | 377 kts | 103° |
| 2026-05-04 22:39 | 13.61984 | 123.09570 | 24053 ft | 365 kts | 103° |
| 2026-05-04 22:39 | 13.61448 | 123.12051 | 23910 ft | 354 kts | 104° |
| 2026-05-04 22:39 | 13.60923 | 123.14482 | 23776 ft | 343 kts | 104° |
| 2026-05-04 22:40 | 13.60435 | 123.16843 | 23656 ft | 333 kts | 103° |
| 2026-05-04 22:40 | 13.60004 | 123.19141 | 23538 ft | 322 kts | 102° |
| 2026-05-04 22:40 | 13.59636 | 123.21376 | 23407 ft | 312 kts | 100° |
| 2026-05-04 22:40 | 13.59331 | 123.23551 | 23269 ft | 303 kts | 99° |
| 2026-05-04 22:41 | 13.59085 | 123.25673 | 23142 ft | 293 kts | 97° |
| 2026-05-04 22:41 | 13.58898 | 123.27727 | 23017 ft | 284 kts | 96° |
| 2026-05-04 22:41 | 13.58762 | 123.29724 | 22896 ft | 275 kts | 95° |
| 2026-05-04 22:41 | 13.58673 | 123.31656 | 22776 ft | 266 kts | 94° |
| 2026-05-04 22:42 | 13.58627 | 123.33534 | 22608 ft | 260 kts | 92° |
| 2026-05-04 22:42 | 13.58620 | 123.35376 | 22377 ft | 256 kts | 91° |
| 2026-05-04 22:42 | 13.58649 | 123.37198 | 22123 ft | 253 kts | 90° |
| 2026-05-04 22:42 | 13.58710 | 123.38996 | 21857 ft | 251 kts | 89° |
| 2026-05-04 22:43 | 13.58781 | 123.40782 | 21594 ft | 249 kts | 89° |
| 2026-05-04 22:43 | 13.58854 | 123.42558 | 21319 ft | 248 kts | 89° |
| 2026-05-04 22:43 | 13.58925 | 123.44296 | 21053 ft | 246 kts | 89° |
| 2026-05-04 22:43 | 13.58996 | 123.46050 | 20779 ft | 245 kts | 89° |
| 2026-05-04 22:44 | 13.59066 | 123.47788 | 20509 ft | 243 kts | 89° |
| 2026-05-04 22:44 | 13.59136 | 123.49525 | 20240 ft | 242 kts | 89° |
| 2026-05-04 22:44 | 13.59205 | 123.51243 | 19972 ft | 241 kts | 89° |
| 2026-05-04 22:44 | 13.59273 | 123.52957 | 19710 ft | 239 kts | 89° |
| 2026-05-04 22:45 | 13.59341 | 123.54660 | 19449 ft | 238 kts | 89° |
| 2026-05-04 22:45 | 13.59453 | 123.57475 | 19017 ft | 236 kts | 88° |
| 2026-05-04 22:45 | 13.59542 | 123.59719 | 18672 ft | 234 kts | 88° |
| 2026-05-04 22:46 | 13.59586 | 123.60825 | 18503 ft | 233 kts | 88° |
| 2026-05-04 22:46 | 13.59652 | 123.62489 | 18248 ft | 232 kts | 88° |
| 2026-05-04 22:46 | 13.59718 | 123.64165 | 17830 ft | 238 kts | 88° |
| 2026-05-04 22:46 | 13.59785 | 123.65855 | 17599 ft | 234 kts | 88° |
| 2026-05-04 22:47 | 13.59850 | 123.67510 | 17360 ft | 230 kts | 88° |
| 2026-05-04 22:47 | 13.59914 | 123.69147 | 17084 ft | 228 kts | 88° |
| 2026-05-04 22:47 | 13.59978 | 123.70765 | 16828 ft | 225 kts | 88° |
| 2026-05-04 22:47 | 13.60041 | 123.72369 | 16558 ft | 224 kts | 88° |
| 2026-05-04 22:48 | 13.60103 | 123.73964 | 16299 ft | 222 kts | 88° |
| 2026-05-04 22:48 | 13.60165 | 123.75548 | 16034 ft | 221 kts | 88° |
| 2026-05-04 22:48 | 13.60226 | 123.77119 | 15755 ft | 220 kts | 88° |
| 2026-05-04 22:48 | 13.60286 | 123.78668 | 15505 ft | 219 kts | 88° |
| 2026-05-04 22:49 | 13.60347 | 123.80226 | 15252 ft | 217 kts | 88° |
| 2026-05-04 22:49 | 13.60407 | 123.81780 | 14995 ft | 216 kts | 88° |
| 2026-05-04 22:49 | 13.60467 | 123.83327 | 14736 ft | 216 kts | 88° |
| 2026-05-04 22:49 | 13.60526 | 123.84864 | 14487 ft | 215 kts | 88° |
| 2026-05-04 22:50 | 13.60586 | 123.86391 | 14244 ft | 213 kts | 88° |
| 2026-05-04 22:50 | 13.60644 | 123.87911 | 13997 ft | 212 kts | 88° |
| 2026-05-04 22:50 | 13.60702 | 123.89425 | 13752 ft | 212 kts | 88° |
| 2026-05-04 22:50 | 13.60761 | 123.90938 | 13478 ft | 211 kts | 88° |
| 2026-05-04 22:51 | 13.60817 | 123.92422 | 13189 ft | 212 kts | 88° |
| 2026-05-04 22:51 | 13.60877 | 123.93977 | 12654 ft | 223 kts | 88° |
| 2026-05-04 22:51 | 13.60939 | 123.95611 | 12013 ft | 235 kts | 88° |
| 2026-05-04 22:51 | 13.61005 | 123.97333 | 11318 ft | 248 kts | 88° |
| 2026-05-04 22:52 | 13.61074 | 123.99145 | 10566 ft | 259 kts | 88° |
| 2026-05-04 22:52 | 13.61146 | 124.01031 | 9928 ft | 264 kts | 88° |
| 2026-05-04 22:52 | 13.61216 | 124.02870 | 9688 ft | 250 kts | 88° |
| 2026-05-04 22:52 | 13.61282 | 124.04604 | 9509 ft | 235 kts | 88° |
| 2026-05-04 22:53 | 13.61343 | 124.06236 | 9338 ft | 222 kts | 88° |
| 2026-05-04 22:53 | 13.61402 | 124.07782 | 9216 ft | 212 kts | 88° |
| 2026-05-04 22:53 | 13.61459 | 124.09283 | 8953 ft | 211 kts | 88° |
| 2026-05-04 22:53 | 13.61517 | 124.10832 | 8430 ft | 223 kts | 88° |
| 2026-05-04 22:54 | 13.61576 | 124.12404 | 8245 ft | 219 kts | 88° |
| 2026-05-04 22:54 | 13.61633 | 124.13919 | 8182 ft | 206 kts | 88° |
| 2026-05-04 22:54 | 13.61687 | 124.15373 | 8015 ft | 202 kts | 88° |
| 2026-05-04 22:54 | 13.61742 | 124.16847 | 7573 ft | 212 kts | 88° |
| 2026-05-04 22:55 | 13.61800 | 124.18398 | 7092 ft | 220 kts | 88° |
| 2026-05-04 22:55 | 13.61860 | 124.19997 | 6484 ft | 228 kts | 88° |
| 2026-05-04 22:55 | 13.61921 | 124.21627 | 6054 ft | 222 kts | 88° |
| 2026-05-04 22:55 | 13.61903 | 124.23146 | 5843 ft | 205 kts | 91° |
| 2026-05-04 22:56 | 13.62052 | 124.24559 | 5466 ft | 198 kts | 70° |
| 2026-05-04 22:56 | 13.62914 | 124.25648 | 4909 ft | 206 kts | 36° |
| 2026-05-04 22:56 | 13.64335 | 124.26067 | 4171 ft | 230 kts | 2° |
| 2026-05-04 22:56 | 13.65945 | 124.25586 | 3417 ft | 250 kts | 330° |
| 2026-05-04 22:57 | 13.67110 | 124.24269 | 3000 ft | 250 kts | 297° |
| 2026-05-04 22:57 | 13.67406 | 124.22550 | 3118 ft | 247 kts | 263° |
| 2026-05-04 22:57 | 13.66852 | 124.21003 | 3230 ft | 224 kts | 231° |
| 2026-05-04 22:57 | 13.65693 | 124.20108 | 3235 ft | 202 kts | 193° |
| 2026-05-04 22:58 | 13.64192 | 124.20073 | 3354 ft | 230 kts | 168° |
| 2026-05-04 22:58 | 13.62678 | 124.20279 | 3315 ft | 209 kts | 169° |
| 2026-05-04 22:58 | 13.61297 | 124.20453 | 3213 ft | 188 kts | 160° |
| 2026-05-04 22:58 | 13.60245 | 124.21109 | 2891 ft | 178 kts | 138° |
| 2026-05-04 22:59 | 13.59358 | 124.22020 | 2335 ft | 183 kts | 115° |
| 2026-05-04 22:59 | 13.59205 | 124.23264 | 1997 ft | 175 kts | 74° |
| 2026-05-04 22:59 | 13.59892 | 124.24188 | 1943 ft | 162 kts | 29° |
| 2026-05-04 22:59 | 13.61055 | 124.24289 | 2358 ft | 189 kts | 349° |
| 2026-05-04 23:00 | 13.62167 | 124.23530 | 3119 ft | 184 kts | 315° |
| 2026-05-04 23:00 | 13.62883 | 124.22545 | 3664 ft | 163 kts | 307° |
| 2026-05-04 23:00 | 13.63447 | 124.21586 | 3659 ft | 151 kts | 306° |
| 2026-05-04 23:00 | 13.64087 | 124.20726 | 3222 ft | 158 kts | 324° |
| 2026-05-04 23:01 | 13.65036 | 124.19983 | 2939 ft | 183 kts | 317° |
| 2026-05-04 23:01 | 13.65620 | 124.18764 | 2301 ft | 208 kts | 277° |
| 2026-05-04 23:01 | 13.65399 | 124.17317 | 1981 ft | 201 kts | 245° |
| 2026-05-04 23:01 | 13.64510 | 124.16339 | 1921 ft | 181 kts | 200° |
| 2026-05-04 23:02 | 13.63304 | 124.16210 | 2000 ft | 173 kts | 168° |
| 2026-05-04 23:02 | 13.62188 | 124.16724 | 2412 ft | 185 kts | 134° |
| 2026-05-04 23:02 | 13.61617 | 124.17805 | 2802 ft | 168 kts | 97° |
| 2026-05-04 23:02 | 13.61549 | 124.18996 | 2918 ft | 168 kts | 98° |
| 2026-05-04 23:03 | 13.61362 | 124.20192 | 2693 ft | 165 kts | 97° |
| 2026-05-04 23:03 | 13.61216 | 124.21302 | 2620 ft | 148 kts | 95° |
| 2026-05-04 23:03 | 13.61118 | 124.22302 | 2508 ft | 135 kts | 94° |
| 2026-05-04 23:03 | 13.61035 | 124.23246 | 2251 ft | 131 kts | 94° |
| 2026-05-04 23:04 | 13.60941 | 124.24169 | 2012 ft | 128 kts | 94° |
| 2026-05-04 23:04 | 13.60629 | 124.24976 | 1768 ft | 131 kts | 136° |
| 2026-05-04 23:04 | 13.59717 | 124.25136 | 1393 ft | 146 kts | 195° |
| 2026-05-04 23:04 | 13.59071 | 124.24379 | 1116 ft | 144 kts | 256° |
| 2026-05-04 23:05 | 13.59021 | 124.23343 | 757 ft | 147 kts | 273° |
| 2026-05-04 23:05 | 13.58757 | 124.22381 | 486 ft | 138 kts | 233° |
| 2026-05-04 23:05 | 13.58272 | 124.21542 | 225 ft | 132 kts | 242° |
| 2026-05-04 23:05 | 13.57837 | 124.20741 | 115 ft | 117 kts | 239° |
| 2026-05-04 23:06 | 13.57496 | 124.20123 | 113 ft | 85 kts | 240° |
| 2026-05-04 23:06 | 13.57336 | 124.19837 | 117 ft | 22 kts | 226° |
| 2026-05-04 23:06 | 13.57299 | 124.19772 | 117 ft | 1 kts | 323° |
| 2026-05-04 23:06 | 13.57313 | 124.19793 | 117 ft | 11 kts | 61° |
| 2026-05-04 23:07 | 13.57388 | 124.19931 | 118 ft | 31 kts | 60° |
| 2026-05-04 23:07 | 13.57494 | 124.20123 | 114 ft | 32 kts | 61° |
| 2026-05-04 23:07 | 13.57598 | 124.20325 | 112 ft | 31 kts | 62° |
| 2026-05-04 23:07 | 13.57702 | 124.20516 | 114 ft | 30 kts | 61° |
| 2026-05-04 23:08 | 13.57806 | 124.20693 | 116 ft | 29 kts | 60° |
| 2026-05-04 23:08 | 13.57913 | 124.20884 | 116 ft | 32 kts | 60° |
| 2026-05-04 23:08 | 13.57997 | 124.21037 | 116 ft | 17 kts | 71° |
| 2026-05-04 23:08 | 13.57971 | 124.21117 | 112 ft | 13 kts | 102° |
| 2026-05-04 23:09 | 13.57986 | 124.21175 | 114 ft | 5 kts | 102° |
| 2026-05-04 23:09 | 13.57979 | 124.21179 | 112 ft | 3 kts | 167° |
| 2026-05-04 23:09 | 13.57953 | 124.21175 | 111 ft | 2 kts | 181° |
| 2026-05-04 23:09 | 13.57944 | 124.21175 | 111 ft | 0 kts | 181° |